Time;durP1;ratioP1;P1;durP2;ratioP2;P2;SDS_P1;SDS_P2;PMS_P1;PMS_P2;Temp;Humidity;BMP_temperature;BMP_pressure;BME280_temperature;BME280_humidity;BME280_pressure;Samples;Min_cycle;Max_cycle;Signal;HPM_P1;HPM_P2
2023/05/05 00:03:15;;;;;;;3.87;1.70;;;8.70;95.00;;;;;;10120288;29;20227;-76
2023/05/05 00:08:36;;;;;;;2.83;1.77;;;8.70;94.90;;;;;;10118126;29;20209;-75
2023/05/05 00:13:57;;;;;;;2.90;1.97;;;8.70;93.30;;;;;;10119265;29;20202;-76
2023/05/05 00:19:18;;;;;;;5.53;2.40;;;8.60;94.70;;;;;;10118989;29;20417;-78
2023/05/05 00:24:39;;;;;;;5.03;2.20;;;8.50;94.10;;;;;;10118610;29;20304;-76
2023/05/05 00:30:00;;;;;;;3.60;1.77;;;8.40;94.60;;;;;;10118518;29;20482;-77
2023/05/05 00:35:21;;;;;;;5.03;2.47;;;8.40;95.10;;;;;;10092745;29;20200;-78
2023/05/05 00:40:43;;;;;;;5.00;2.47;;;8.50;94.70;;;;;;10080735;29;20534;-79
2023/05/05 00:46:23;;;;;;;10.40;2.43;;;8.50;93.70;;;;;;10092099;29;20277;-77
2023/05/05 00:51:44;;;;;;;5.13;2.10;;;8.40;94.80;;;;;;10118578;29;20555;-77
2023/05/05 00:57:05;;;;;;;6.70;2.67;;;8.50;95.30;;;;;;10118641;29;20389;-75
2023/05/05 01:02:26;;;;;;;5.53;2.20;;;8.50;95.60;;;;;;10103470;29;20242;-77
2023/05/05 01:08:13;;;;;;;6.60;2.30;;;8.40;96.70;;;;;;10117158;29;20207;-77
2023/05/05 01:13:56;;;;;;;4.60;2.50;;;8.40;97.30;;;;;;10117080;29;20284;-76
2023/05/05 01:19:49;;;;;;;8.03;3.53;;;8.40;98.50;;;;;;10115930;29;20273;-74
2023/05/05 01:25:16;;;;;;;6.13;2.77;;;8.30;99.60;;;;;;10153013;29;20233;-77
2023/05/05 01:30:53;;;;;;;5.60;2.80;;;8.40;99.90;;;;;;10152302;29;20242;-75
2023/05/05 01:36:31;;;;;;;8.83;2.87;;;8.50;99.90;;;;;;10139548;29;20649;-75
2023/05/05 01:41:58;;;;;;;7.70;3.03;;;8.40;99.90;;;;;;10152848;29;20314;-75
2023/05/05 01:47:23;;;;;;;3.63;2.70;;;8.30;99.90;;;;;;10151944;29;20238;-77
2023/05/05 01:52:46;;;;;;;5.37;3.03;;;8.20;99.90;;;;;;10152349;29;20214;-75
2023/05/05 01:58:08;;;;;;;6.50;3.57;;;8.20;99.90;;;;;;10151280;29;20254;-78
2023/05/05 02:03:32;;;;;;;5.50;2.90;;;8.20;99.90;;;;;;10121688;29;20228;-74
2023/05/05 02:08:57;;;;;;;6.13;3.43;;;8.20;99.90;;;;;;10123856;29;20206;-77
2023/05/05 02:14:25;;;;;;;9.40;3.43;;;8.20;99.90;;;;;;10123094;29;20199;-75
2023/05/05 02:19:49;;;;;;;5.47;3.30;;;8.10;99.90;;;;;;10122495;29;20560;-76
2023/05/05 02:25:10;;;;;;;8.13;3.30;;;8.10;99.90;;;;;;10123338;29;20236;-79
2023/05/05 02:30:34;;;;;;;9.13;3.30;;;8.10;99.90;;;;;;10121688;29;20530;-75
2023/05/05 02:35:57;;;;;;;6.97;3.33;;;8.00;99.90;;;;;;10120602;29;20254;-76
2023/05/05 02:41:22;;;;;;;6.70;3.33;;;7.80;99.90;;;;;;10121630;29;20243;-75
2023/05/05 02:46:44;;;;;;;9.50;3.60;;;7.70;99.90;;;;;;10134424;29;20362;-75
2023/05/05 02:52:06;;;;;;;13.73;2.77;;;7.70;99.90;;;;;;10120782;29;20312;-75
2023/05/05 02:57:56;;;;;;;6.50;2.70;;;7.70;99.90;;;;;;10121906;29;20219;-78
2023/05/05 03:03:20;;;;;;;6.43;2.50;;;7.60;99.90;;;;;;10128538;29;20255;-75
2023/05/05 03:09:00;;;;;;;3.60;2.27;;;7.60;99.80;;;;;;10120138;29;20387;-75
2023/05/05 03:14:23;;;;;;;5.83;2.40;;;7.60;99.90;;;;;;10120720;29;20197;-76
2023/05/05 03:19:45;;;;;;;6.00;2.07;;;7.70;99.90;;;;;;10119879;29;20209;-74
2023/05/05 03:25:07;;;;;;;6.37;2.20;;;7.60;99.90;;;;;;10118916;29;20254;-76
2023/05/05 03:30:28;;;;;;;5.73;2.23;;;7.60;99.90;;;;;;10119287;29;20240;-75
2023/05/05 03:35:50;;;;;;;5.00;2.50;;;7.50;99.90;;;;;;10119311;29;20289;-76
2023/05/05 03:41:11;;;;;;;3.10;1.97;;;7.60;99.90;;;;;;10119868;29;20292;-75
2023/05/05 03:46:33;;;;;;;4.87;2.43;;;7.50;99.90;;;;;;10118967;29;20203;-75
2023/05/05 03:51:55;;;;;;;4.10;2.37;;;7.50;99.90;;;;;;10118184;29;20208;-75
2023/05/05 03:57:16;;;;;;;6.70;3.90;;;7.70;99.90;;;;;;10119491;29;20386;-76
2023/05/05 04:02:37;;;;;;;29.20;16.00;;;7.80;99.90;;;;;;10118174;29;20419;-76
2023/05/05 04:07:58;;;;;;;14.77;6.80;;;7.70;98.30;;;;;;10117384;29;20279;-75
2023/05/05 04:13:19;;;;;;;20.03;10.37;;;7.50;98.50;;;;;;10118786;29;20204;-75
2023/05/05 04:18:41;;;;;;;10.10;4.40;;;7.50;98.00;;;;;;10117685;29;20379;-76
2023/05/05 04:24:03;;;;;;;6.57;3.13;;;7.50;96.80;;;;;;10116717;29;20546;-75
2023/05/05 04:29:24;;;;;;;4.47;2.47;;;7.40;95.90;;;;;;10118048;29;20227;-75
2023/05/05 04:34:46;;;;;;;6.90;2.03;;;7.40;95.50;;;;;;10116455;29;20236;-75
2023/05/05 04:40:08;;;;;;;7.80;3.43;;;7.30;94.80;;;;;;10118120;29;20217;-75
2023/05/05 04:45:30;;;;;;;30.17;9.50;;;7.30;94.20;;;;;;10116699;29;20558;-75
2023/05/05 04:50:51;;;;;;;54.30;16.47;;;7.30;94.50;;;;;;10116102;29;20210;-76
2023/05/05 04:56:13;;;;;;;39.87;18.20;;;7.30;93.20;;;;;;10117530;29;20208;-76
2023/05/05 05:01:34;;;;;;;37.63;23.70;;;7.30;92.80;;;;;;10116524;29;20228;-77
2023/05/05 05:06:57;;;;;;;28.83;22.53;;;7.40;92.70;;;;;;10102550;29;20529;-78
2023/05/05 05:12:19;;;;;;;24.17;13.17;;;7.50;90.80;;;;;;10116120;29;20227;-77
2023/05/05 05:17:41;;;;;;;15.23;6.67;;;7.60;84.90;;;;;;10115937;29;20219;-77
2023/05/05 05:23:03;;;;;;;21.37;6.20;;;7.50;73.70;;;;;;10077723;29;20231;-76
2023/05/05 05:28:28;;;;;;;15.13;4.17;;;7.60;64.10;;;;;;10079258;29;20302;-76
2023/05/05 05:33:51;;;;;;;6.67;1.73;;;7.60;54.40;;;;;;10087605;29;20212;-77
2023/05/05 05:39:12;;;;;;;27.53;9.33;;;7.60;47.90;;;;;;10123572;29;20209;-77
2023/05/05 05:44:34;;;;;;;12.93;3.53;;;7.80;44.30;;;;;;10124482;29;20302;-74
2023/05/05 05:49:54;;;;;;;10.03;3.87;;;8.00;39.20;;;;;;10123209;29;20217;-73
2023/05/05 05:55:15;;;;;;;9.67;2.67;;;8.20;37.00;;;;;;10123324;29;20219;-74
2023/05/05 06:00:37;;;;;;;10.00;3.17;;;8.50;32.10;;;;;;10122839;29;20491;-77
2023/05/05 06:06:02;;;;;;;8.60;1.70;;;8.80;31.20;;;;;;10121710;29;20211;-78
2023/05/05 06:11:23;;;;;;;4.97;2.63;;;8.90;29.30;;;;;;10123124;29;20209;-74
2023/05/05 06:16:44;;;;;;;11.70;3.83;;;9.30;26.20;;;;;;10121667;29;20221;-76
2023/05/05 06:22:09;;;;;;;8.63;4.30;;;9.90;23.30;;;;;;10096667;29;20220;-77
2023/05/05 06:27:30;;;;;;;16.73;2.20;;;10.30;20.70;;;;;;10096583;29;20208;-77
2023/05/05 06:32:53;;;;;;;8.10;2.93;;;10.80;18.50;;;;;;10106759;29;20295;-76
2023/05/05 06:38:14;;;;;;;8.30;2.30;;;11.30;17.10;;;;;;10121791;29;20534;-76
2023/05/05 06:43:35;;;;;;;7.67;2.40;;;11.70;15.90;;;;;;10122307;29;20225;-80
2023/05/05 06:49:00;;;;;;;4.97;2.10;;;12.20;14.20;;;;;;10120221;29;20209;-76
2023/05/05 06:54:22;;;;;;;8.73;3.05;;;12.90;13.00;;;;;;10120637;29;20261;-79
2023/05/05 06:59:43;;;;;;;4.70;2.40;;;13.00;11.00;;;;;;10121787;29;20276;-77
2023/05/05 07:05:04;;;;;;;4.25;1.27;;;13.30;11.70;;;;;;10121016;29;20404;-77
2023/05/05 07:10:26;;;;;;;3.60;1.60;;;13.60;11.40;;;;;;10121138;29;20201;-76
2023/05/05 07:15:48;;;;;;;3.42;1.73;;;13.90;9.90;;;;;;10120820;29;20219;-78
2023/05/05 07:21:09;;;;;;;2.42;1.80;;;14.00;9.80;;;;;;10110531;29;20209;-76
2023/05/05 07:26:31;;;;;;;5.60;2.03;;;14.30;7.40;;;;;;10107062;29;20280;-75
2023/05/05 07:31:52;;;;;;;3.92;2.08;;;14.50;4.70;;;;;;10095771;29;20253;-79
2023/05/05 07:37:13;;;;;;;10.73;2.03;;;14.40;3.70;;;;;;10114787;29;20204;-79
2023/05/05 07:42:34;;;;;;;3.30;1.60;;;14.80;3.50;;;;;;10114346;29;20421;-77
2023/05/05 07:47:56;;;;;;;3.97;1.75;;;15.10;3.80;;;;;;10113384;29;20290;-75
2023/05/05 07:53:17;;;;;;;8.70;2.08;;;15.40;3.20;;;;;;10097996;29;20261;-80
2023/05/05 07:58:38;;;;;;;4.38;1.70;;;15.90;3.00;;;;;;10114224;29;20191;-81
2023/05/05 08:03:59;;;;;;;3.28;1.65;;;16.10;1.70;;;;;;10112877;29;20314;-77
2023/05/05 08:09:20;;;;;;;5.10;2.25;;;16.60;2.00;;;;;;10114355;29;20197;-76
2023/05/05 08:14:42;;;;;;;4.72;2.00;;;16.60;3.10;;;;;;10113636;29;20275;-79
2023/05/05 08:20:03;;;;;;;6.00;2.40;;;17.10;3.30;;;;;;10133079;29;20207;-76
2023/05/05 08:25:25;;;;;;;4.20;2.15;;;17.10;2.60;;;;;;10113465;29;20304;-77
2023/05/05 08:30:46;;;;;;;8.35;2.72;;;16.80;3.20;;;;;;10110695;29;20571;-76
2023/05/05 08:36:07;;;;;;;10.02;4.70;;;17.30;2.40;;;;;;10105249;29;20288;-80
2023/05/05 08:41:28;;;;;;;6.50;3.50;;;16.90;2.80;;;;;;10090266;29;20197;-78
2023/05/05 08:46:50;;;;;;;5.65;3.25;;;17.40;1.30;;;;;;10091069;29;20301;-78
2023/05/05 08:52:22;;;;;;;9.18;2.28;;;17.50;1.60;;;;;;10095191;29;20220;-75
2023/05/05 08:58:00;;;;;;;8.13;1.88;;;18.00;1.10;;;;;;10113534;29;20277;-76
2023/05/05 09:03:21;;;;;;;8.00;2.88;;;18.40;1.00;;;;;;10110640;29;20329;-76
2023/05/05 09:08:42;;;;;;;6.05;2.70;;;17.90;1.60;;;;;;10111476;29;20213;-76
2023/05/05 09:14:04;;;;;;;3.33;1.83;;;17.80;1.50;;;;;;10110556;29;20206;-76
2023/05/05 09:20:06;;;;;;;10.50;2.28;;;18.20;1.00;;;;;;10109536;29;20490;-76
2023/05/05 09:25:27;;;;;;;7.97;1.90;;;18.60;1.00;;;;;;10112068;29;20530;-76
2023/05/05 09:30:48;;;;;;;4.13;1.90;;;18.20;1.30;;;;;;10111201;29;20313;-76
2023/05/05 09:36:08;;;;;;;5.35;2.00;;;17.60;2.00;;;;;;10124428;29;20201;-79
2023/05/05 09:41:41;;;;;;;5.93;2.22;;;17.00;2.80;;;;;;10118873;29;20455;-78
2023/05/05 09:47:02;;;;;;;7.88;2.28;;;17.00;3.70;;;;;;10108641;29;20239;-77
2023/05/05 09:52:25;;;;;;;6.93;2.45;;;17.20;2.90;;;;;;10110213;29;20284;-76
2023/05/05 09:57:46;;;;;;;3.40;2.45;;;17.80;2.40;;;;;;10111218;29;20211;-77
2023/05/05 10:03:08;;;;;;;4.63;2.05;;;17.80;2.20;;;;;;10108714;29;20247;-78
2023/05/05 10:08:30;;;;;;;26.98;19.25;;;17.30;2.50;;;;;;10102744;29;20204;-79
2023/05/05 10:13:52;;;;;;;8.63;4.38;;;17.40;2.60;;;;;;10110908;29;20410;-75
2023/05/05 10:19:15;;;;;;;26.58;15.40;;;17.30;2.40;;;;;;10110127;29;20220;-76
2023/05/05 10:24:41;;;;;;;5.47;2.85;;;16.40;3.20;;;;;;10113621;29;20267;-75
2023/05/05 10:30:06;;;;;;;6.47;2.70;;;16.50;3.00;;;;;;10114162;29;20233;-75
2023/05/05 10:35:31;;;;;;;7.05;2.70;;;16.30;3.00;;;;;;10113902;29;20334;-74
2023/05/05 10:40:55;;;;;;;10.48;4.07;;;16.00;3.90;;;;;;10127284;29;20272;-75
2023/05/05 10:46:16;;;;;;;4.93;2.55;;;16.50;3.40;;;;;;10112969;29;20766;-75
2023/05/05 10:52:16;;;;;;;10.07;3.10;;;16.50;2.80;;;;;;10116679;29;20243;-77
2023/05/05 10:57:43;;;;;;;8.65;4.35;;;16.80;2.50;;;;;;10084458;29;20220;-76
2023/05/05 11:03:16;;;;;;;9.57;4.82;;;16.60;2.30;;;;;;10125441;29;20481;-77
2023/05/05 11:08:42;;;;;;;5.63;2.78;;;16.50;2.70;;;;;;10115511;29;20214;-78
2023/05/05 11:14:21;;;;;;;6.88;3.33;;;16.70;1.80;;;;;;10113867;29;20253;-75
2023/05/05 11:19:42;;;;;;;5.55;2.33;;;16.70;2.10;;;;;;10116462;29;20403;-76
2023/05/05 11:25:50;;;;;;;6.15;2.33;;;16.40;2.70;;;;;;10116184;29;20243;-76
2023/05/05 11:31:15;;;;;;;3.67;2.13;;;16.80;2.30;;;;;;10113748;29;20264;-75
2023/05/05 11:36:39;;;;;;;4.20;2.08;;;16.60;1.80;;;;;;10095402;29;20236;-80
2023/05/05 11:42:23;;;;;;;6.38;1.85;;;16.80;1.90;;;;;;10112648;29;20299;-76
2023/05/05 11:47:44;;;;;;;4.45;1.80;;;16.80;1.50;;;;;;10102765;29;20491;-78
2023/05/05 11:53:06;;;;;;;7.60;3.63;;;17.00;1.40;;;;;;10076045;29;20202;-76
2023/05/05 11:58:27;;;;;;;4.35;2.10;;;16.80;1.70;;;;;;10110541;29;20213;-76
2023/05/05 12:03:49;;;;;;;5.85;2.10;;;16.20;2.00;;;;;;10109105;29;20579;-79
2023/05/05 12:09:15;;;;;;;4.32;2.22;;;16.10;2.40;;;;;;10100245;29;20200;-78
2023/05/05 12:14:45;;;;;;;3.70;2.38;;;16.20;2.70;;;;;;10088719;29;20217;-77
2023/05/05 12:20:07;;;;;;;6.68;2.40;;;16.00;2.50;;;;;;10108959;29;20477;-79
2023/05/05 12:25:36;;;;;;;6.47;2.55;;;15.70;2.40;;;;;;10097573;29;20249;-74
2023/05/05 12:30:58;;;;;;;5.13;2.22;;;15.60;2.40;;;;;;10113423;29;20312;-80
2023/05/05 12:36:19;;;;;;;7.47;2.42;;;15.70;2.40;;;;;;10108868;29;20250;-74
2023/05/05 12:41:41;;;;;;;5.03;1.63;;;15.80;2.50;;;;;;10112112;29;20208;-74
2023/05/05 12:47:03;;;;;;;4.30;1.83;;;15.70;1.80;;;;;;10078793;29;20234;-73
2023/05/05 12:52:42;;;;;;;3.92;1.85;;;15.40;2.40;;;;;;10112124;29;20508;-75
2023/05/05 12:58:03;;;;;;;4.57;2.10;;;15.40;2.20;;;;;;10112282;29;20223;-74
2023/05/05 13:03:24;;;;;;;6.88;1.90;;;15.60;2.00;;;;;;10099775;29;20328;-75
2023/05/05 13:08:46;;;;;;;8.13;2.17;;;15.60;2.20;;;;;;10110890;29;20499;-78
2023/05/05 13:14:07;;;;;;;4.05;2.20;;;15.40;2.40;;;;;;10111084;29;20292;-75
2023/05/05 13:19:28;;;;;;;2.08;1.48;;;15.30;2.40;;;;;;10122450;29;20203;-75
2023/05/05 13:24:49;;;;;;;5.07;2.40;;;15.30;2.00;;;;;;10108032;29;20263;-76
2023/05/05 13:30:12;;;;;;;13.27;7.10;;;15.10;2.30;;;;;;10110905;29;20242;-74
2023/05/05 13:35:33;;;;;;;3.72;2.42;;;14.90;2.40;;;;;;10156670;29;20449;-81
2023/05/05 13:40:55;;;;;;;6.25;2.92;;;14.90;2.50;;;;;;10150267;29;20393;-77
2023/05/05 13:46:16;;;;;;;3.95;2.17;;;14.60;3.00;;;;;;10136375;29;20245;-77
2023/05/05 13:51:39;;;;;;;11.50;2.88;;;14.50;3.60;;;;;;10072932;29;20348;-74
2023/05/05 13:57:01;;;;;;;5.72;3.22;;;14.50;3.00;;;;;;10081381;29;20227;-74
2023/05/05 14:02:22;;;;;;;16.23;2.05;;;14.30;3.60;;;;;;10102644;29;20228;-80
2023/05/05 14:07:48;;;;;;;5.28;2.15;;;14.00;3.60;;;;;;10112222;29;20214;-74
2023/05/05 14:13:10;;;;;;;5.30;1.70;;;13.60;3.80;;;;;;10156738;29;20203;-74
2023/05/05 14:18:31;;;;;;;4.60;2.40;;;13.10;4.00;;;;;;10146812;29;20263;-75
2023/05/05 14:23:52;;;;;;;5.65;2.00;;;12.90;4.60;;;;;;10119679;29;20260;-74
2023/05/05 14:29:13;;;;;;;4.22;2.08;;;12.80;4.50;;;;;;10119771;29;20228;-74
2023/05/05 14:34:34;;;;;;;3.83;1.77;;;13.00;4.50;;;;;;10125831;29;20226;-76
2023/05/05 14:39:55;;;;;;;3.65;2.00;;;12.80;4.50;;;;;;10103413;29;20512;-79
2023/05/05 14:45:17;;;;;;;8.40;2.70;;;12.90;4.20;;;;;;10087815;29;20228;-76
2023/05/05 14:50:41;;;;;;;7.20;4.60;;;12.80;4.30;;;;;;10099338;29;20211;-75
2023/05/05 14:56:02;;;;;;;17.40;10.20;;;12.80;4.30;;;;;;10080109;29;20558;-75
2023/05/05 15:01:26;;;;;;;6.13;2.25;;;12.70;4.20;;;;;;10079760;29;20388;-78
2023/05/05 15:06:49;;;;;;;9.18;3.90;;;12.60;4.40;;;;;;10092556;29;20241;-80
2023/05/05 15:12:10;;;;;;;7.43;5.05;;;12.40;4.90;;;;;;10120748;29;20393;-79
2023/05/05 15:17:31;;;;;;;13.55;4.78;;;12.30;5.00;;;;;;10122004;29;20281;-77
2023/05/05 15:22:53;;;;;;;9.52;3.22;;;12.00;5.60;;;;;;10117987;29;20595;-76
2023/05/05 15:28:16;;;;;;;5.55;2.80;;;11.90;5.40;;;;;;10138669;29;20240;-81
2023/05/05 15:33:38;;;;;;;10.43;6.10;;;11.90;5.30;;;;;;10158316;29;20200;-80
2023/05/05 15:38:59;;;;;;;6.18;2.60;;;11.90;5.50;;;;;;10157654;29;20461;-78
2023/05/05 15:44:20;;;;;;;6.15;3.72;;;11.70;5.30;;;;;;10116387;29;20231;-76
2023/05/05 15:49:41;;;;;;;3.72;2.72;;;11.80;5.50;;;;;;10120759;29;20203;-79
2023/05/05 15:55:02;;;;;;;8.07;3.25;;;11.80;5.30;;;;;;10117810;29;20388;-80
2023/05/05 16:00:24;;;;;;;14.52;5.93;;;11.80;4.90;;;;;;10114505;29;20198;-80
2023/05/05 16:05:46;;;;;;;6.20;2.92;;;11.60;4.50;;;;;;10118878;29;20294;-76
2023/05/05 16:11:07;;;;;;;11.30;4.03;;;11.60;4.30;;;;;;10114643;29;20198;-80
2023/05/05 16:16:28;;;;;;;8.17;2.60;;;11.40;4.40;;;;;;10117583;29;20237;-76
2023/05/05 16:21:50;;;;;;;15.40;2.57;;;11.10;4.70;;;;;;10118864;29;20228;-80
2023/05/05 16:27:11;;;;;;;2.30;1.70;;;11.00;4.20;;;;;;10115563;29;20297;-79
2023/05/05 16:32:32;;;;;;;3.43;2.43;;;10.80;5.00;;;;;;10095510;29;20237;-76
2023/05/05 16:37:53;;;;;;;4.03;2.30;;;11.00;5.50;;;;;;10107623;29;20204;-81
2023/05/05 16:43:14;;;;;;;2.67;1.60;;;10.80;5.00;;;;;;10096658;29;20281;-80
2023/05/05 16:48:35;;;;;;;6.63;2.40;;;10.50;5.20;;;;;;10117428;29;20283;-80
2023/05/05 16:53:56;;;;;;;5.37;2.60;;;10.30;5.30;;;;;;10118491;29;20442;-76
2023/05/05 16:59:18;;;;;;;8.07;2.60;;;10.00;6.10;;;;;;10118398;29;20269;-75
2023/05/05 17:04:39;;;;;;;9.07;2.70;;;9.90;6.70;;;;;;10134456;29;20412;-75
2023/05/05 17:10:00;;;;;;;4.87;2.23;;;9.70;7.30;;;;;;10104831;29;20212;-75
2023/05/05 17:15:21;;;;;;;6.00;2.73;;;9.60;7.60;;;;;;10117039;29;20499;-75
2023/05/05 17:20:42;;;;;;;8.73;3.30;;;9.60;7.40;;;;;;10122703;29;20244;-78
2023/05/05 17:26:04;;;;;;;9.20;2.50;;;9.40;7.70;;;;;;10089970;29;20223;-75
2023/05/05 17:31:25;;;;;;;5.13;2.50;;;9.40;7.50;;;;;;10083768;29;20241;-75
2023/05/05 17:36:46;;;;;;;7.50;3.53;;;9.10;7.70;;;;;;10100675;29;20228;-75
2023/05/05 17:42:07;;;;;;;5.87;3.33;;;8.70;8.30;;;;;;10100212;29;20231;-76
2023/05/05 17:47:28;;;;;;;7.27;4.47;;;8.70;8.50;;;;;;10128582;29;20230;-75
2023/05/05 17:52:49;;;;;;;15.50;7.70;;;8.60;8.80;;;;;;10110984;29;20195;-75
2023/05/05 17:58:10;;;;;;;14.67;5.10;;;8.60;9.20;;;;;;10130654;29;20195;-75
2023/05/05 18:03:31;;;;;;;11.13;5.83;;;8.70;9.50;;;;;;10128373;29;20270;-75
2023/05/05 18:08:52;;;;;;;11.20;6.57;;;8.50;9.90;;;;;;10144785;29;20270;-77
2023/05/05 18:14:13;;;;;;;18.40;7.77;;;8.40;10.70;;;;;;10131908;29;20222;-75
2023/05/05 18:19:34;;;;;;;18.17;7.30;;;8.40;11.00;;;;;;10129963;29;20203;-76
2023/05/05 18:24:58;;;;;;;15.47;5.23;;;8.10;12.20;;;;;;10130054;29;20232;-77
2023/05/05 18:30:19;;;;;;;14.50;5.17;;;8.00;13.30;;;;;;10130679;29;20244;-75
2023/05/05 18:35:40;;;;;;;18.60;4.97;;;7.90;14.30;;;;;;10130336;29;20436;-79
2023/05/05 18:41:02;;;;;;;8.60;4.27;;;7.80;14.90;;;;;;10132380;29;20211;-77
2023/05/05 18:46:22;;;;;;;10.07;4.77;;;7.70;15.90;;;;;;10128073;29;20247;-78
2023/05/05 18:51:43;;;;;;;6.97;3.20;;;7.70;16.40;;;;;;10135248;29;20199;-80
2023/05/05 18:57:04;;;;;;;9.57;3.40;;;7.60;17.00;;;;;;10130846;29;20208;-79
2023/05/05 19:02:25;;;;;;;6.43;3.50;;;7.60;17.70;;;;;;10134925;29;20200;-75
2023/05/05 19:07:46;;;;;;;7.93;3.30;;;7.50;18.10;;;;;;10127241;29;20240;-76
2023/05/05 19:13:09;;;;;;;6.63;4.23;;;7.50;99.90;;;;;;10128632;29;20277;-74
2023/05/05 19:18:30;;;;;;;8.23;4.87;;;7.30;99.90;;;;;;10124685;29;20240;-76
2023/05/05 19:23:51;;;;;;;10.80;3.93;;;7.30;99.90;;;;;;10128013;29;20426;-80
2023/05/05 19:29:12;;;;;;;8.13;3.67;;;7.30;99.90;;;;;;10128935;29;20303;-77
2023/05/05 19:34:33;;;;;;;7.07;3.73;;;7.20;99.90;;;;;;10132670;29;20216;-79
2023/05/05 19:39:55;;;;;;;11.67;3.77;;;7.30;1.00;;;;;;10130751;29;20201;-78
2023/05/05 19:45:16;;;;;;;8.83;3.83;;;7.20;1.00;;;;;;10125617;29;20232;-75
2023/05/05 19:50:37;;;;;;;9.40;3.87;;;7.00;1.00;;;;;;10136224;29;20203;-75
2023/05/05 19:55:58;;;;;;;7.57;4.13;;;7.00;1.00;;;;;;10124121;29;20200;-79
2023/05/05 20:01:19;;;;;;;8.50;4.20;;;7.00;49.40;;;;;;10084699;29;20203;-78
2023/05/05 20:06:40;;;;;;;9.17;5.70;;;7.00;99.90;;;;;;10105820;29;20279;-74
2023/05/05 20:12:02;;;;;;;8.90;4.63;;;7.00;99.90;;;;;;10121346;29;20212;-76
2023/05/05 20:17:24;;;;;;;8.30;3.73;;;7.00;1.00;;;;;;10121603;29;20269;-75
2023/05/05 20:22:46;;;;;;;10.97;4.30;;;6.90;1.00;;;;;;10132118;29;20426;-75
2023/05/05 20:28:07;;;;;;;12.53;3.70;;;6.90;1.00;;;;;;10119619;29;20195;-77
2023/05/05 20:33:28;;;;;;;8.50;3.87;;;6.90;1.00;;;;;;10118526;29;20217;-74
2023/05/05 20:38:50;;;;;;;9.03;5.20;;;6.80;1.00;;;;;;10119031;29;20191;-74
2023/05/05 20:44:11;;;;;;;6.83;4.00;;;6.80;92.50;;;;;;10117964;29;20245;-78
2023/05/05 20:49:32;;;;;;;6.93;3.20;;;6.80;99.90;;;;;;10117893;29;20426;-78
2023/05/05 20:54:54;;;;;;;9.43;4.37;;;6.60;99.90;;;;;;10118535;29;20273;-79
2023/05/05 21:00:15;;;;;;;9.90;3.37;;;6.70;99.90;;;;;;10118563;29;20217;-77
2023/05/05 21:05:36;;;;;;;7.53;3.27;;;6.70;99.90;;;;;;10117293;29;20237;-79
2023/05/05 21:10:57;;;;;;;10.70;5.30;;;6.70;1.00;;;;;;10118433;29;20201;-77
2023/05/05 21:16:18;;;;;;;7.73;3.53;;;6.70;99.90;;;;;;10117967;29;20276;-80
2023/05/05 21:21:38;;;;;;;7.27;3.97;;;6.60;1.00;;;;;;10116883;29;20211;-79
2023/05/05 21:26:59;;;;;;;19.20;9.47;;;6.70;1.00;;;;;;10117047;29;20431;-75
2023/05/05 21:32:20;;;;;;;7.37;3.67;;;6.60;1.00;;;;;;10116497;29;20289;-81
2023/05/05 21:37:42;;;;;;;12.60;6.10;;;6.70;99.90;;;;;;10115814;29;20236;-79
2023/05/05 21:43:04;;;;;;;18.93;10.70;;;6.60;1.00;;;;;;10116629;29;20574;-80
2023/05/05 21:48:26;;;;;;;29.87;13.20;;;6.50;1.00;;;;;;10115826;29;20265;-79
2023/05/05 21:53:47;;;;;;;24.87;8.90;;;6.50;1.00;;;;;;10117274;29;20212;-80
2023/05/05 21:59:08;;;;;;;17.27;5.40;;;6.40;1.00;;;;;;10116051;29;20204;-80
2023/05/05 22:04:29;;;;;;;18.07;6.07;;;6.50;1.00;;;;;;10115764;29;20237;-76
2023/05/05 22:09:51;;;;;;;6.73;3.40;;;6.50;1.00;;;;;;10117082;29;20276;-78
2023/05/05 22:15:12;;;;;;;14.83;4.87;;;6.50;99.90;;;;;;10117259;29;20203;-77
2023/05/05 22:20:34;;;;;;;12.20;5.60;;;6.50;99.90;;;;;;10150899;29;20204;-78
2023/05/05 22:25:56;;;;;;;10.63;3.93;;;6.40;99.90;;;;;;10127749;29;20232;-77
2023/05/05 22:31:17;;;;;;;11.27;4.90;;;6.40;1.00;;;;;;10134620;29;20252;-77
2023/05/05 22:36:38;;;;;;;16.37;5.33;;;6.50;1.00;;;;;;10120774;29;20219;-75
2023/05/05 22:42:00;;;;;;;17.03;5.53;;;6.50;1.00;;;;;;10094699;29;20202;-78
2023/05/05 22:47:21;;;;;;;13.20;4.50;;;6.50;99.90;;;;;;10125071;29;20234;-79
2023/05/05 22:52:42;;;;;;;9.53;3.33;;;6.50;99.90;;;;;;10121991;29;20199;-79
2023/05/05 22:58:03;;;;;;;11.27;3.93;;;6.50;1.00;;;;;;10123079;29;20226;-78
2023/05/05 23:03:24;;;;;;;14.20;4.73;;;6.40;1.00;;;;;;10121849;29;20212;-80
2023/05/05 23:08:47;;;;;;;14.80;5.53;;;6.40;1.00;;;;;;10121560;29;20203;-78
2023/05/05 23:14:08;;;;;;;17.87;5.90;;;6.40;1.00;;;;;;10121603;29;20204;-74
2023/05/05 23:19:31;;;;;;;9.30;3.87;;;6.40;1.00;;;;;;10093955;29;20213;-75
2023/05/05 23:24:52;;;;;;;10.17;3.43;;;6.40;99.90;;;;;;10120488;29;20262;-78
2023/05/05 23:30:14;;;;;;;10.37;3.40;;;6.30;1.00;;;;;;10121354;29;20236;-76
2023/05/05 23:35:38;;;;;;;8.03;3.30;;;6.30;1.00;;;;;;10120558;29;20507;-76
2023/05/05 23:40:59;;;;;;;7.80;3.67;;;6.30;1.00;;;;;;10120556;29;20202;-75
2023/05/05 23:46:20;;;;;;;8.10;3.00;;;6.20;99.90;;;;;;10121038;29;20234;-80
2023/05/05 23:51:41;;;;;;;4.67;2.80;;;6.30;1.00;;;;;;10118751;29;20227;-78
2023/05/05 23:57:02;;;;;;;6.43;3.07;;;6.20;99.90;;;;;;10120824;29;20249;-74
